createdAt,value
2022-07-27T00:01:20.162Z,99.90
2022-07-27T00:03:49.626Z,99.90
2022-07-27T00:06:18.072Z,99.90
2022-07-27T00:08:46.882Z,99.90
2022-07-27T00:11:15.279Z,99.90
2022-07-27T00:13:46.141Z,99.90
2022-07-27T00:16:14.676Z,99.90
2022-07-27T00:18:43.088Z,99.90
2022-07-27T00:21:11.457Z,99.90
2022-07-27T00:23:40.734Z,99.90
2022-07-27T00:26:09.059Z,99.90
2022-07-27T00:28:37.411Z,99.90
2022-07-27T00:31:07.605Z,99.90
2022-07-27T00:33:36.014Z,99.90
2022-07-27T00:36:04.420Z,99.90
2022-07-27T00:38:32.962Z,99.90
2022-07-27T00:41:01.273Z,99.90
2022-07-27T00:43:29.627Z,99.90
2022-07-27T00:45:58.087Z,99.90
2022-07-27T00:48:29.214Z,99.90
2022-07-27T00:50:58.391Z,99.90
2022-07-27T00:53:26.782Z,99.90
2022-07-27T00:55:55.150Z,99.90
2022-07-27T00:58:24.313Z,99.90
2022-07-27T01:00:52.602Z,99.90
2022-07-27T01:03:23.203Z,99.90
2022-07-27T01:06:00.115Z,99.90
2022-07-27T01:08:30.731Z,99.90
2022-07-27T01:11:00.184Z,99.90
2022-07-27T01:13:30.723Z,99.90
2022-07-27T01:15:59.776Z,99.90
2022-07-27T01:18:30.998Z,99.90
2022-07-27T01:21:03.369Z,99.90
2022-07-27T01:23:33.552Z,99.90
2022-07-27T01:26:02.542Z,99.90
2022-07-27T01:28:30.900Z,99.90
2022-07-27T01:30:59.306Z,99.90
2022-07-27T01:33:27.662Z,99.90
2022-07-27T01:35:57.570Z,99.90
2022-07-27T01:38:26.198Z,99.90
2022-07-27T01:40:56.765Z,99.90
2022-07-27T01:43:25.108Z,99.90
2022-07-27T01:45:53.567Z,99.90
2022-07-27T01:48:22.417Z,99.90
2022-07-27T01:50:51.076Z,99.90
2022-07-27T01:53:19.544Z,99.90
2022-07-27T01:55:48.234Z,99.90
2022-07-27T01:58:18.414Z,99.90
2022-07-27T02:00:47.036Z,99.90
2022-07-27T02:03:15.764Z,99.90
2022-07-27T02:05:44.384Z,99.90
2022-07-27T02:08:13.441Z,99.90
2022-07-27T02:11:04.090Z,99.90
2022-07-27T02:13:32.843Z,99.90
2022-07-27T02:16:01.425Z,99.90
2022-07-27T02:18:35.969Z,99.90
2022-07-27T02:21:05.866Z,99.90
2022-07-27T02:23:34.881Z,99.90
2022-07-27T02:26:03.375Z,99.90
2022-07-27T02:28:33.182Z,99.90
2022-07-27T02:31:01.948Z,99.90
2022-07-27T02:33:30.500Z,99.90
2022-07-27T02:35:58.903Z,99.90
2022-07-27T02:38:27.255Z,99.90
2022-07-27T02:40:55.530Z,99.90
2022-07-27T02:43:23.795Z,99.90
2022-07-27T02:45:53.613Z,99.90
2022-07-27T02:48:21.953Z,99.90
2022-07-27T02:50:50.337Z,99.90
2022-07-27T02:53:18.667Z,99.90
2022-07-27T02:55:46.952Z,99.90
2022-07-27T02:58:15.242Z,99.90
2022-07-27T03:00:43.569Z,99.90
2022-07-27T03:03:13.359Z,99.90
2022-07-27T03:05:41.745Z,99.90
2022-07-27T03:08:10.630Z,99.90
2022-07-27T03:10:38.992Z,99.90
2022-07-27T03:13:07.316Z,99.90
2022-07-27T03:15:36.273Z,99.90
2022-07-27T03:18:04.723Z,99.90
2022-07-27T03:20:34.406Z,99.90
2022-07-27T03:23:02.703Z,99.90
2022-07-27T03:25:31.081Z,99.90
2022-07-27T03:28:03.825Z,99.90
2022-07-27T03:30:32.948Z,99.90
2022-07-27T03:33:01.576Z,99.90
2022-07-27T03:35:30.303Z,99.90
2022-07-27T03:37:59.943Z,99.90
2022-07-27T03:40:29.400Z,99.90
2022-07-27T03:42:57.855Z,99.90
2022-07-27T03:45:26.252Z,99.90
2022-07-27T03:47:54.649Z,99.90
2022-07-27T03:50:23.001Z,99.90
2022-07-27T03:52:52.100Z,99.90
2022-07-27T03:55:22.266Z,99.90
2022-07-27T03:57:50.885Z,99.90
2022-07-27T04:00:19.807Z,99.90
2022-07-27T04:02:48.172Z,99.90
2022-07-27T04:05:16.750Z,99.90
2022-07-27T04:07:45.001Z,99.90
2022-07-27T04:10:14.015Z,99.90
2022-07-27T04:12:43.803Z,99.90
2022-07-27T04:15:15.127Z,99.90
2022-07-27T04:17:54.737Z,99.90
2022-07-27T04:20:26.245Z,99.90
2022-07-27T04:22:54.987Z,99.90
2022-07-27T04:25:23.589Z,99.90
2022-07-27T04:27:54.606Z,99.90
2022-07-27T04:30:23.614Z,99.90
2022-07-27T04:32:51.943Z,99.90
2022-07-27T04:35:24.226Z,99.90
2022-07-27T04:37:57.897Z,99.90
2022-07-27T04:40:32.821Z,99.90
2022-07-27T04:43:04.270Z,99.90
2022-07-27T04:45:32.704Z,99.90
2022-07-27T04:48:01.158Z,99.90
2022-07-27T04:50:29.394Z,99.90
2022-07-27T04:52:59.794Z,99.90
2022-07-27T04:55:28.066Z,99.90
2022-07-27T04:57:56.491Z,99.90
2022-07-27T05:00:26.822Z,99.90
2022-07-27T05:02:55.226Z,99.90
2022-07-27T05:05:23.895Z,99.90
2022-07-27T05:07:52.234Z,99.90
2022-07-27T05:10:20.939Z,99.90
2022-07-27T05:12:49.976Z,99.90
2022-07-27T05:15:18.500Z,99.90
2022-07-27T05:17:48.270Z,99.90
2022-07-27T05:20:17.159Z,99.90
2022-07-27T05:22:45.480Z,99.90
2022-07-27T05:25:13.839Z,99.90
2022-07-27T05:27:53.822Z,99.90
2022-07-27T05:30:24.780Z,99.90
2022-07-27T05:32:54.733Z,99.90
2022-07-27T05:35:23.288Z,99.90
2022-07-27T05:37:51.711Z,99.90
2022-07-27T05:40:20.089Z,99.90
2022-07-27T05:42:48.711Z,99.90
2022-07-27T05:45:17.227Z,99.90
2022-07-27T05:47:45.571Z,99.90
2022-07-27T05:50:15.966Z,99.90
2022-07-27T05:52:44.791Z,99.90
2022-07-27T05:55:13.373Z,99.90
2022-07-27T05:57:42.208Z,99.90
2022-07-27T06:00:12.734Z,99.90
2022-07-27T06:02:41.343Z,99.90
2022-07-27T06:05:15.684Z,99.90
2022-07-27T06:08:03.485Z,99.90
2022-07-27T06:10:34.682Z,99.90
2022-07-27T06:13:04.491Z,99.90
2022-07-27T06:15:32.976Z,99.90
2022-07-27T06:18:03.649Z,99.90
2022-07-27T06:20:32.232Z,99.90
2022-07-27T06:23:07.461Z,99.90
2022-07-27T06:25:36.778Z,99.90
2022-07-27T06:28:05.859Z,99.90
2022-07-27T06:30:34.837Z,99.90
2022-07-27T06:33:04.884Z,99.90
2022-07-27T06:35:37.773Z,99.90
2022-07-27T06:38:08.470Z,99.90
2022-07-27T06:40:36.914Z,99.90
2022-07-27T06:43:06.881Z,99.90
2022-07-27T06:45:35.195Z,99.90
2022-07-27T06:48:03.491Z,99.90
2022-07-27T06:50:31.834Z,99.90
2022-07-27T06:53:00.081Z,99.90
2022-07-27T06:55:29.804Z,99.90
2022-07-27T06:57:58.165Z,99.90
2022-07-27T07:00:26.800Z,99.90
2022-07-27T07:02:56.693Z,99.90
2022-07-27T07:05:25.404Z,99.90
2022-07-27T07:07:55.362Z,99.90
2022-07-27T07:10:24.573Z,99.90
2022-07-27T07:12:56.505Z,99.90
2022-07-27T07:15:26.392Z,99.90
2022-07-27T07:17:55.096Z,99.90
2022-07-27T07:20:23.927Z,99.90
2022-07-27T07:22:52.617Z,99.90
2022-07-27T07:25:21.322Z,99.90
2022-07-27T07:27:51.022Z,99.90
2022-07-27T07:30:21.089Z,99.90
2022-07-27T07:32:49.475Z,99.90
2022-07-27T07:35:17.977Z,99.90
2022-07-27T07:37:50.170Z,99.90
2022-07-27T07:43:07.795Z,99.90
2022-07-27T07:45:50.518Z,99.90
2022-07-27T07:48:21.486Z,99.90
2022-07-27T07:50:52.006Z,99.90
2022-07-27T07:53:22.335Z,99.90
2022-07-27T07:55:50.933Z,99.90
2022-07-27T07:58:20.468Z,99.90
2022-07-27T08:00:50.209Z,99.90
2022-07-27T08:03:19.340Z,99.90
2022-07-27T08:05:47.746Z,99.90
2022-07-27T08:08:16.991Z,99.90
2022-07-27T08:10:45.531Z,99.90
2022-07-27T08:13:21.646Z,99.90
2022-07-27T08:15:52.466Z,99.90
2022-07-27T08:18:21.620Z,99.90
2022-07-27T08:20:50.430Z,99.90
2022-07-27T08:23:18.809Z,99.90
2022-07-27T08:25:47.213Z,99.90
2022-07-27T08:28:15.568Z,99.90
2022-07-27T08:30:44.498Z,99.90
2022-07-27T08:33:14.654Z,99.90
2022-07-27T08:35:42.999Z,99.90
2022-07-27T08:38:11.333Z,99.90
2022-07-27T08:40:43.502Z,99.30
2022-07-27T08:43:18.970Z,99.40
2022-07-27T08:45:56.208Z,98.90
2022-07-27T08:48:27.250Z,97.70
2022-07-27T08:50:55.873Z,97.20
2022-07-27T08:53:24.706Z,97.70
2022-07-27T08:55:53.099Z,97.40
2022-07-27T08:58:21.433Z,95.80
2022-07-27T09:00:50.927Z,95.90
2022-07-27T09:03:21.474Z,95.30
2022-07-27T09:05:53.063Z,95.00
2022-07-27T09:08:24.341Z,94.90
2022-07-27T09:10:54.553Z,95.60
2022-07-27T09:13:25.827Z,94.70
2022-07-27T09:18:44.661Z,93.10
2022-07-27T09:21:17.684Z,93.00
2022-07-27T09:23:48.483Z,93.10
2022-07-27T09:26:35.104Z,93.10
2022-07-27T09:29:06.896Z,93.10
2022-07-27T09:31:43.188Z,92.90
2022-07-27T09:34:12.350Z,93.50
2022-07-27T09:36:54.268Z,93.00
2022-07-27T09:39:23.863Z,93.90
2022-07-27T09:41:55.195Z,93.90
2022-07-27T09:44:43.384Z,95.00
2022-07-27T09:47:26.894Z,95.10
2022-07-27T09:49:57.196Z,96.00
2022-07-27T09:52:29.757Z,96.30
2022-07-27T09:55:04.442Z,96.20
2022-07-27T09:57:51.355Z,96.10
2022-07-27T10:00:20.496Z,96.20
2022-07-27T10:02:51.144Z,95.70
2022-07-27T10:05:21.574Z,96.20
2022-07-27T10:07:52.486Z,96.20
2022-07-27T10:10:21.495Z,96.80
2022-07-27T10:12:54.627Z,96.30
2022-07-27T10:15:24.502Z,95.50
2022-07-27T10:18:07.419Z,95.60
2022-07-27T10:20:42.373Z,94.60
2022-07-27T10:23:28.434Z,93.70
2022-07-27T10:26:20.415Z,93.70
2022-07-27T10:28:54.954Z,94.10
2022-07-27T10:31:24.871Z,93.30
2022-07-27T10:33:54.623Z,93.70
2022-07-27T10:36:45.764Z,92.40
2022-07-27T10:39:28.405Z,93.40
2022-07-27T10:42:25.423Z,93.30
2022-07-27T10:44:55.654Z,93.40
2022-07-27T10:47:36.353Z,93.90
2022-07-27T10:50:24.118Z,94.20
2022-07-27T10:52:54.042Z,94.50
2022-07-27T10:55:59.158Z,94.60
2022-07-27T10:58:48.130Z,94.70
2022-07-27T11:01:18.329Z,93.30
2022-07-27T11:03:59.253Z,93.40
2022-07-27T11:06:42.186Z,94.20
2022-07-27T11:10:02.889Z,94.50
2022-07-27T11:12:09.046Z,93.40
2022-07-27T11:14:47.525Z,93.70
2022-07-27T11:17:49.483Z,92.00
2022-07-27T11:20:05.836Z,92.00
2022-07-27T11:25:25.146Z,92.70
2022-07-27T11:27:53.536Z,93.50
2022-07-27T11:30:28.487Z,92.40
2022-07-27T11:32:57.868Z,92.90
2022-07-27T11:35:26.431Z,92.50
2022-07-27T11:38:07.684Z,92.20
2022-07-27T11:43:39.599Z,91.20
2022-07-27T11:46:17.572Z,91.60
2022-07-27T11:49:17.536Z,91.70
2022-07-27T11:51:47.684Z,91.50
2022-07-27T11:54:20.999Z,92.00
2022-07-27T11:56:51.365Z,92.80
2022-07-27T11:59:22.018Z,93.10
2022-07-27T12:01:53.704Z,92.90
2022-07-27T12:04:24.950Z,93.20
2022-07-27T12:07:06.371Z,93.00
2022-07-27T12:09:38.568Z,93.10
2022-07-27T12:12:15.219Z,93.40
2022-07-27T12:14:46.793Z,92.50
2022-07-27T12:17:23.000Z,92.60
2022-07-27T12:19:57.342Z,92.30
2022-07-27T12:22:28.260Z,92.30
2022-07-27T12:24:57.662Z,92.10
2022-07-27T12:27:27.419Z,91.30
2022-07-27T12:29:57.049Z,91.80
2022-07-27T12:32:28.212Z,92.30
2022-07-27T12:34:57.357Z,91.50
2022-07-27T12:37:31.401Z,91.10
2022-07-27T12:40:00.261Z,91.90
2022-07-27T12:42:38.299Z,91.50
2022-07-27T12:45:14.811Z,91.90
2022-07-27T12:47:45.043Z,91.70
2022-07-27T12:50:15.679Z,91.30
2022-07-27T12:52:49.175Z,91.30
2022-07-27T12:55:17.796Z,91.90
2022-07-27T12:57:55.850Z,91.80
2022-07-27T13:00:32.651Z,91.60
2022-07-27T13:03:05.100Z,91.70
2022-07-27T13:05:34.474Z,91.60
2022-07-27T13:08:03.383Z,91.90
2022-07-27T13:10:32.435Z,91.20
2022-07-27T13:13:01.222Z,91.70
2022-07-27T13:15:29.497Z,92.30
2022-07-27T13:17:57.834Z,91.90
2022-07-27T13:20:27.769Z,93.00
2022-07-27T13:22:56.271Z,91.90
2022-07-27T13:25:24.962Z,92.60
2022-07-27T13:27:53.317Z,92.80
2022-07-27T13:30:21.615Z,91.60
2022-07-27T13:32:49.931Z,91.80
2022-07-27T13:35:18.227Z,91.90
2022-07-27T13:37:47.889Z,91.80
2022-07-27T13:40:16.249Z,91.70
2022-07-27T13:42:44.852Z,92.60
2022-07-27T13:45:13.579Z,92.50
2022-07-27T13:47:42.750Z,91.50
2022-07-27T13:50:19.275Z,92.40
2022-07-27T13:52:49.941Z,91.70
2022-07-27T13:55:18.934Z,91.50
2022-07-27T13:57:47.892Z,91.90
2022-07-27T14:00:17.910Z,91.40
2022-07-27T14:02:47.120Z,92.50
2022-07-27T14:05:18.418Z,92.70
2022-07-27T14:07:50.167Z,92.70
2022-07-27T14:10:39.568Z,92.40
2022-07-27T14:13:11.540Z,92.40
2022-07-27T14:15:53.209Z,92.00
2022-07-27T14:18:25.662Z,92.10
2022-07-27T14:20:54.308Z,92.40
2022-07-27T14:23:25.000Z,92.30
2022-07-27T14:25:54.237Z,91.30
2022-07-27T14:28:23.159Z,91.30
2022-07-27T14:30:52.154Z,92.10
2022-07-27T14:33:20.550Z,91.80
2022-07-27T14:35:49.238Z,92.10
2022-07-27T14:38:26.995Z,92.40
2022-07-27T14:41:01.685Z,92.00
2022-07-27T14:43:30.784Z,92.00
2022-07-27T14:45:59.512Z,91.80
2022-07-27T14:48:48.801Z,92.10
2022-07-27T14:51:16.863Z,91.80
2022-07-27T14:53:46.054Z,92.00
2022-07-27T14:56:15.773Z,92.80
2022-07-27T14:58:44.557Z,92.30
2022-07-27T15:01:16.636Z,92.00
2022-07-27T15:03:46.402Z,92.20
2022-07-27T15:06:14.776Z,92.30
2022-07-27T15:08:43.169Z,92.40
2022-07-27T15:11:11.518Z,91.70
2022-07-27T15:13:41.419Z,91.40
2022-07-27T15:16:09.881Z,91.80
2022-07-27T15:18:39.037Z,92.40
2022-07-27T15:21:13.238Z,91.40
2022-07-27T15:23:43.065Z,92.10
2022-07-27T15:26:11.991Z,92.20
2022-07-27T15:28:41.994Z,92.40
2022-07-27T15:31:10.464Z,92.10
2022-07-27T15:33:39.018Z,92.30
2022-07-27T15:36:07.392Z,92.20
2022-07-27T15:38:35.909Z,91.80
2022-07-27T15:41:04.249Z,91.30
2022-07-27T15:43:32.555Z,91.40
2022-07-27T15:46:02.810Z,91.50
2022-07-27T15:48:31.322Z,92.40
2022-07-27T15:50:59.651Z,92.20
2022-07-27T15:53:29.016Z,92.40
2022-07-27T15:55:57.595Z,92.80
2022-07-27T15:58:26.201Z,92.10
2022-07-27T16:00:57.467Z,92.30
2022-07-27T16:03:28.326Z,92.40
2022-07-27T16:05:58.417Z,92.00
2022-07-27T16:08:29.675Z,92.30
2022-07-27T16:10:58.984Z,92.40
2022-07-27T16:13:27.299Z,92.10
2022-07-27T16:16:13.066Z,92.40
2022-07-27T16:18:42.927Z,91.70
2022-07-27T16:21:11.322Z,92.80
2022-07-27T16:23:39.656Z,92.50
2022-07-27T16:26:08.442Z,92.50
2022-07-27T16:28:39.692Z,92.30
2022-07-27T16:31:10.217Z,92.40
2022-07-27T16:33:39.841Z,92.10
2022-07-27T16:36:09.859Z,92.50
2022-07-27T16:38:38.326Z,92.70
2022-07-27T16:41:10.910Z,92.90
2022-07-27T16:43:39.613Z,92.50
2022-07-27T16:46:10.022Z,92.50
2022-07-27T16:48:41.746Z,92.50
2022-07-27T16:51:13.464Z,92.80
2022-07-27T16:53:44.012Z,92.20
2022-07-27T16:56:12.926Z,92.70
2022-07-27T16:58:41.474Z,92.90
2022-07-27T17:01:10.230Z,93.20
2022-07-27T17:03:51.339Z,92.50
2022-07-27T17:06:21.716Z,93.00
2022-07-27T17:08:50.198Z,92.80
2022-07-27T17:11:20.960Z,92.60
2022-07-27T17:13:51.284Z,92.90
2022-07-27T17:16:28.940Z,93.00
2022-07-27T17:18:57.582Z,93.10
2022-07-27T17:21:27.394Z,93.00
2022-07-27T17:23:55.779Z,94.70
2022-07-27T17:26:25.137Z,96.40
2022-07-27T17:28:54.089Z,97.00
2022-07-27T17:31:23.343Z,97.50
2022-07-27T17:33:52.489Z,98.00
2022-07-27T17:36:21.093Z,98.60
2022-07-27T17:38:51.693Z,98.70
2022-07-27T17:41:24.836Z,99.00
2022-07-27T17:43:54.516Z,99.20
2022-07-27T17:46:24.436Z,99.40
2022-07-27T17:48:53.845Z,99.40
2022-07-27T17:51:23.220Z,99.20
2022-07-27T17:53:53.112Z,99.50
2022-07-27T17:56:21.370Z,99.50
2022-07-27T17:58:49.639Z,99.90
2022-07-27T18:01:18.116Z,99.80
2022-07-27T18:04:06.642Z,99.80
2022-07-27T18:06:35.270Z,99.90
2022-07-27T18:09:06.717Z,99.90
2022-07-27T18:11:35.429Z,99.90
2022-07-27T18:14:03.722Z,99.90
2022-07-27T18:16:38.013Z,99.90
2022-07-27T18:19:08.972Z,99.90
2022-07-27T18:21:37.774Z,99.90
2022-07-27T18:24:10.510Z,99.90
2022-07-27T18:26:39.243Z,99.90
2022-07-27T18:29:07.819Z,99.90
2022-07-27T18:31:36.122Z,99.90
2022-07-27T18:34:09.141Z,99.90
2022-07-27T18:36:42.330Z,99.90
2022-07-27T18:39:12.276Z,99.90
2022-07-27T18:41:41.273Z,99.90
2022-07-27T18:44:09.551Z,99.90
2022-07-27T18:46:37.994Z,99.90
2022-07-27T18:49:06.443Z,99.90
2022-07-27T18:51:37.178Z,99.90
2022-07-27T18:54:05.759Z,99.90
2022-07-27T18:56:37.939Z,99.90
2022-07-27T18:59:06.795Z,99.90
2022-07-27T19:01:35.119Z,99.90
2022-07-27T19:04:03.560Z,99.90
2022-07-27T19:06:32.779Z,99.90
2022-07-27T19:09:01.289Z,99.90
2022-07-27T19:11:30.382Z,99.90
2022-07-27T19:14:00.103Z,99.90
2022-07-27T19:16:28.760Z,99.90
2022-07-27T19:18:58.773Z,99.90
2022-07-27T19:21:27.083Z,99.90
2022-07-27T19:23:55.558Z,99.90
2022-07-27T19:26:24.066Z,99.90
2022-07-27T19:28:52.666Z,99.90
2022-07-27T19:31:23.797Z,99.90
2022-07-27T19:33:53.153Z,99.90
2022-07-27T19:36:22.978Z,99.90
2022-07-27T19:38:51.571Z,99.90
2022-07-27T19:41:20.079Z,99.90
2022-07-27T19:43:48.647Z,99.90
2022-07-27T19:46:17.080Z,99.90
2022-07-27T19:48:47.105Z,99.90
2022-07-27T19:51:16.088Z,99.90
2022-07-27T19:53:44.615Z,99.90
2022-07-27T19:56:13.029Z,99.90
2022-07-27T19:58:41.552Z,99.90
2022-07-27T20:01:11.588Z,99.90
2022-07-27T20:03:52.444Z,99.90
2022-07-27T20:06:24.381Z,99.90
2022-07-27T20:08:55.713Z,99.90
2022-07-27T20:11:24.211Z,99.90
2022-07-27T20:13:52.622Z,99.90
2022-07-27T20:16:21.020Z,99.90
2022-07-27T20:18:49.449Z,99.90
2022-07-27T20:21:23.331Z,99.90
2022-07-27T20:23:53.909Z,99.90
2022-07-27T20:26:22.456Z,99.90
2022-07-27T20:28:50.994Z,99.90
2022-07-27T20:31:19.446Z,99.90
2022-07-27T20:33:48.106Z,99.90
2022-07-27T20:36:16.509Z,99.90
2022-07-27T20:38:44.856Z,99.90
2022-07-27T20:41:14.636Z,99.90
2022-07-27T20:43:43.054Z,99.90
2022-07-27T20:46:11.508Z,99.90
2022-07-27T20:48:42.636Z,99.90
2022-07-27T20:51:11.009Z,99.90
2022-07-27T20:53:39.582Z,99.90
2022-07-27T20:56:08.128Z,99.90
2022-07-27T20:58:37.892Z,99.90
2022-07-27T21:01:06.475Z,99.90
2022-07-27T21:03:34.918Z,99.90
2022-07-27T21:06:03.375Z,99.90
2022-07-27T21:08:31.709Z,99.90
2022-07-27T21:11:00.039Z,99.90
2022-07-27T21:13:28.352Z,99.90
2022-07-27T21:15:58.001Z,99.90
2022-07-27T21:18:26.321Z,99.90
2022-07-27T21:20:54.703Z,99.90
2022-07-27T21:23:40.601Z,99.90
2022-07-27T21:26:08.967Z,99.90
2022-07-27T21:28:37.401Z,99.90
2022-07-27T21:31:10.949Z,99.90
2022-07-27T21:33:39.924Z,99.90
2022-07-27T21:36:09.056Z,99.90
2022-07-27T21:38:37.379Z,99.90
2022-07-27T21:41:05.843Z,99.90
2022-07-27T21:43:34.227Z,99.90
2022-07-27T21:46:02.506Z,99.90
2022-07-27T21:48:32.700Z,99.90
2022-07-27T21:51:01.797Z,99.90
2022-07-27T21:53:30.317Z,99.90
2022-07-27T21:55:59.211Z,99.90
2022-07-27T21:58:27.515Z,99.90
2022-07-27T22:00:55.883Z,99.90
2022-07-27T22:03:24.241Z,99.90
2022-07-27T22:05:54.222Z,99.90
2022-07-27T22:08:22.706Z,99.90
2022-07-27T22:10:51.089Z,99.90
2022-07-27T22:13:19.371Z,99.90
2022-07-27T22:15:49.469Z,99.90
2022-07-27T22:18:18.163Z,99.90
2022-07-27T22:20:46.440Z,99.90
2022-07-27T22:23:16.142Z,99.90
2022-07-27T22:25:44.716Z,99.90
2022-07-27T22:28:13.036Z,99.90
2022-07-27T22:30:41.550Z,99.90
2022-07-27T22:33:09.947Z,99.90
2022-07-27T22:35:38.343Z,99.90
2022-07-27T22:38:06.786Z,99.90
2022-07-27T22:40:36.529Z,99.90
2022-07-27T22:43:04.852Z,99.90
2022-07-27T22:45:33.423Z,99.90
2022-07-27T22:48:01.718Z,99.90
2022-07-27T22:50:30.036Z,99.90
2022-07-27T22:52:58.499Z,99.90
2022-07-27T22:55:27.167Z,99.90
2022-07-27T22:57:56.883Z,99.90
2022-07-27T23:00:25.344Z,99.90
2022-07-27T23:02:53.973Z,99.90
2022-07-27T23:05:24.142Z,99.90
2022-07-27T23:07:52.466Z,99.90
2022-07-27T23:10:41.587Z,99.90
2022-07-27T23:13:12.129Z,99.90
2022-07-27T23:15:40.713Z,99.90
2022-07-27T23:18:09.444Z,99.90
2022-07-27T23:20:52.918Z,99.90
2022-07-27T23:23:21.330Z,99.90
2022-07-27T23:25:50.854Z,99.90
2022-07-27T23:28:20.794Z,99.90
2022-07-27T23:30:51.282Z,99.90
2022-07-27T23:33:19.906Z,99.90
2022-07-27T23:35:48.255Z,99.90
2022-07-27T23:38:16.623Z,99.90
2022-07-27T23:40:44.945Z,99.90
2022-07-27T23:43:13.345Z,99.90
2022-07-27T23:45:42.996Z,99.90
2022-07-27T23:48:11.331Z,99.90
2022-07-27T23:50:39.683Z,99.90
2022-07-27T23:53:09.019Z,99.90
2022-07-27T23:55:37.730Z,99.90
2022-07-27T23:58:06.063Z,99.90
